Hookstown, Pennsylvania
Current Conditions -  °F | °C
As of 6:47 PM on Friday 24 Oct 2014 (Local Time) from KBVI Reporting Station
Clear Clear  
Wind Chill: 54°   Ceiling: Unl
Heat Index: 54°   Visibility: 10mi
Dew Point: 37°   Wind: 3mph
Humidity: 54%   Direction: 260°W
Pressure: 30"   Gusts: NA
Location:  40.6°N, 80.47°W
Report Text: KBVI 242247Z 26003KT 10SM CLR 12/03 A3000
Loading
Personal Weather Stations






























Interactive Weather Map
Tropical Storm Tracking
New forecast layout! Learn more

10-Day Weather Forecast

Advertisements
Track Severe Weather on mobile